createdAt,value
2024-04-21T00:00:02.342Z,0
2024-04-21T00:01:02.361Z,0
2024-04-21T00:02:02.403Z,0
2024-04-21T00:03:02.455Z,0
2024-04-21T00:04:02.446Z,0
2024-04-21T00:05:02.475Z,0
2024-04-21T00:06:02.333Z,0
2024-04-21T00:07:02.364Z,0
2024-04-21T00:08:02.340Z,0
2024-04-21T00:09:02.364Z,0
2024-04-21T00:10:02.387Z,0
2024-04-21T00:11:02.372Z,0
2024-04-21T00:12:02.339Z,0
2024-04-21T00:13:02.359Z,0
2024-04-21T00:14:02.338Z,0
2024-04-21T00:15:02.348Z,0
2024-04-21T00:16:02.667Z,0
2024-04-21T00:17:02.468Z,0
2024-04-21T00:18:02.424Z,0
2024-04-21T00:19:02.367Z,0
2024-04-21T00:20:02.405Z,0
2024-04-21T00:21:02.336Z,0
2024-04-21T00:22:02.369Z,0
2024-04-21T00:23:02.337Z,0
2024-04-21T00:24:02.338Z,0
2024-04-21T00:25:02.404Z,0
2024-04-21T00:26:02.336Z,0
2024-04-21T00:27:02.360Z,0
2024-04-21T00:28:02.456Z,0
2024-04-21T00:29:02.341Z,0
2024-04-21T00:30:02.342Z,0
2024-04-21T00:31:02.373Z,0
2024-04-21T00:32:02.339Z,0
2024-04-21T00:33:02.397Z,0
2024-04-21T00:34:02.423Z,0
2024-04-21T00:35:02.343Z,0
2024-04-21T00:36:02.340Z,0
2024-04-21T00:37:02.390Z,0
2024-04-21T00:38:02.334Z,0
2024-04-21T00:39:02.344Z,0
2024-04-21T00:40:02.415Z,0
2024-04-21T00:41:02.340Z,0
2024-04-21T00:42:02.335Z,0
2024-04-21T00:43:02.514Z,0
2024-04-21T00:44:02.325Z,0
2024-04-21T00:45:02.336Z,0
2024-04-21T00:46:02.410Z,0
2024-04-21T00:47:02.409Z,0
2024-04-21T00:48:02.423Z,0
2024-04-21T00:49:02.445Z,0
2024-04-21T00:50:02.452Z,0
2024-04-21T00:51:02.357Z,0
2024-04-21T00:52:02.335Z,0
2024-04-21T00:53:02.348Z,0
2024-04-21T00:54:02.339Z,0
2024-04-21T00:55:02.388Z,0
2024-04-21T00:56:02.342Z,0
2024-04-21T00:57:02.330Z,0
2024-04-21T00:58:02.522Z,0
2024-04-21T00:59:02.343Z,0
2024-04-21T01:00:02.343Z,0
2024-04-21T01:01:02.421Z,0
2024-04-21T01:02:02.384Z,0
2024-04-21T01:03:02.347Z,0
2024-04-21T01:04:02.439Z,0
2024-04-21T01:05:02.463Z,0
2024-04-21T01:06:02.343Z,0
2024-04-21T01:07:02.402Z,0
2024-04-21T01:08:02.328Z,0
2024-04-21T01:09:02.347Z,0
2024-04-21T01:10:02.375Z,0
2024-04-21T01:11:02.384Z,0
2024-04-21T01:12:02.350Z,0
2024-04-21T01:13:02.371Z,0
2024-04-21T01:14:02.336Z,0
2024-04-21T01:15:02.338Z,0
2024-04-21T01:16:02.383Z,0
2024-04-21T01:17:02.391Z,0
2024-04-21T01:18:02.482Z,0
2024-04-21T01:19:02.413Z,0
2024-04-21T01:20:02.423Z,0
2024-04-21T01:21:02.336Z,0
2024-04-21T01:22:02.367Z,0
2024-04-21T01:23:02.344Z,0
2024-04-21T01:24:02.344Z,0
2024-04-21T01:25:02.428Z,0
2024-04-21T01:26:02.350Z,0
2024-04-21T01:27:02.326Z,0
2024-04-21T01:28:02.417Z,0
2024-04-21T01:29:02.346Z,0
2024-04-21T01:30:02.327Z,0
2024-04-21T01:31:02.359Z,0
2024-04-21T01:32:02.384Z,0
2024-04-21T01:33:02.525Z,0
2024-04-21T01:34:02.414Z,0
2024-04-21T01:35:02.350Z,0
2024-04-21T01:36:02.349Z,0
2024-04-21T01:37:02.375Z,0
2024-04-21T01:38:02.338Z,0
2024-04-21T01:39:02.334Z,0
2024-04-21T01:40:02.435Z,0
2024-04-21T01:41:02.344Z,0
2024-04-21T01:42:02.330Z,0
2024-04-21T01:43:02.461Z,0
2024-04-21T01:44:02.344Z,0
2024-04-21T01:46:02.375Z,0
2024-04-21T01:47:02.350Z,0
2024-04-21T01:48:02.419Z,0
2024-04-21T01:49:02.356Z,0
2024-04-21T01:50:02.350Z,0
2024-04-21T01:51:02.330Z,0
2024-04-21T01:52:02.372Z,0
2024-04-21T01:53:02.358Z,0
2024-04-21T01:54:02.342Z,0
2024-04-21T01:55:02.420Z,0
2024-04-21T01:56:02.325Z,0
2024-04-21T01:57:02.337Z,0
2024-04-21T01:58:02.469Z,0
2024-04-21T01:59:02.348Z,0
2024-04-21T02:00:02.335Z,0
2024-04-21T02:01:02.414Z,0
2024-04-21T02:02:02.335Z,0
2024-04-21T02:03:02.347Z,0
2024-04-21T02:04:02.512Z,0
2024-04-21T02:05:02.354Z,0
2024-04-21T02:06:02.340Z,0
2024-04-21T02:07:02.347Z,0
2024-04-21T02:08:02.349Z,0
2024-04-21T02:09:02.328Z,0
2024-04-21T02:10:02.416Z,0
2024-04-21T02:11:02.396Z,0
2024-04-21T02:12:02.331Z,0
2024-04-21T02:13:02.405Z,0
2024-04-21T02:14:02.328Z,0
2024-04-21T02:15:02.330Z,0
2024-04-21T02:16:02.421Z,0
2024-04-21T02:17:02.435Z,0
2024-04-21T02:18:02.369Z,0
2024-04-21T02:19:02.346Z,0
2024-04-21T02:20:02.345Z,0
2024-04-21T02:21:02.329Z,0
2024-04-21T02:22:02.390Z,0
2024-04-21T02:23:02.336Z,0
2024-04-21T02:24:02.342Z,0
2024-04-21T02:25:02.413Z,0
2024-04-21T02:26:02.331Z,0
2024-04-21T02:27:02.353Z,0
2024-04-21T02:28:02.369Z,0
2024-04-21T02:29:02.326Z,0
2024-04-21T02:30:02.385Z,0
2024-04-21T02:31:02.381Z,0
2024-04-21T02:32:02.331Z,0
2024-04-21T02:33:02.470Z,0
2024-04-21T02:34:02.405Z,0
2024-04-21T02:35:02.358Z,0
2024-04-21T02:36:02.347Z,0
2024-04-21T02:37:02.430Z,0
2024-04-21T02:38:02.328Z,0
2024-04-21T02:39:02.336Z,0
2024-04-21T02:40:02.362Z,0
2024-04-21T02:41:02.376Z,0
2024-04-21T02:42:02.329Z,0
2024-04-21T02:43:02.431Z,0
2024-04-21T02:44:02.329Z,0
2024-04-21T02:45:02.361Z,0
2024-04-21T02:46:02.398Z,0
2024-04-21T02:47:02.381Z,0
2024-04-21T02:48:02.365Z,0
2024-04-21T02:49:02.427Z,0
2024-04-21T02:50:02.346Z,0
2024-04-21T02:51:02.325Z,0
2024-04-21T02:52:02.375Z,0
2024-04-21T02:53:02.328Z,0
2024-04-21T02:54:02.336Z,0
2024-04-21T02:55:02.420Z,0
2024-04-21T02:56:02.318Z,0
2024-04-21T02:57:02.373Z,0
2024-04-21T02:58:02.350Z,0
2024-04-21T02:59:02.347Z,0
2024-04-21T03:00:02.342Z,0
2024-04-21T03:01:02.419Z,0
2024-04-21T03:02:02.345Z,0
2024-04-21T03:03:02.334Z,0
2024-04-21T03:04:02.443Z,0
2024-04-21T03:05:05.369Z,0
2024-04-21T03:06:02.335Z,0
2024-04-21T03:07:02.392Z,0
2024-04-21T03:08:02.330Z,0
2024-04-21T03:09:02.337Z,0
2024-04-21T03:10:02.384Z,0
2024-04-21T03:11:02.375Z,0
2024-04-21T03:12:02.331Z,0
2024-04-21T03:13:02.459Z,0
2024-04-21T03:14:02.329Z,0
2024-04-21T03:15:02.340Z,0
2024-04-21T03:16:02.342Z,0
2024-04-21T03:17:02.369Z,0
2024-04-21T03:18:02.431Z,0
2024-04-21T03:19:02.346Z,0
2024-04-21T03:20:02.337Z,0
2024-04-21T03:21:02.340Z,0
2024-04-21T03:22:02.378Z,0
2024-04-21T03:23:02.325Z,0
2024-04-21T03:24:02.349Z,0
2024-04-21T03:25:02.376Z,0
2024-04-21T03:26:02.338Z,0
2024-04-21T03:27:02.341Z,0
2024-04-21T03:28:02.376Z,0
2024-04-21T03:29:02.341Z,0
2024-04-21T03:30:02.380Z,1
2024-04-21T03:31:02.415Z,1
2024-04-21T03:32:02.347Z,3
2024-04-21T03:33:02.462Z,3
2024-04-21T03:34:02.374Z,5
2024-04-21T03:35:02.352Z,7
2024-04-21T03:36:02.327Z,7
2024-04-21T03:37:02.440Z,9
2024-04-21T03:38:02.341Z,11
2024-04-21T03:39:02.323Z,11
2024-04-21T03:40:02.352Z,14
2024-04-21T03:41:02.349Z,16
2024-04-21T03:42:02.343Z,20
2024-04-21T03:43:02.356Z,22
2024-04-21T03:44:02.333Z,25
2024-04-21T03:45:02.331Z,29
2024-04-21T03:46:02.367Z,33
2024-04-21T03:47:02.395Z,36
2024-04-21T03:48:02.416Z,42
2024-04-21T03:49:02.411Z,46
2024-04-21T03:50:02.357Z,53
2024-04-21T03:51:02.331Z,57
2024-04-21T03:52:02.393Z,62
2024-04-21T03:53:02.339Z,68
2024-04-21T03:54:02.341Z,77
2024-04-21T03:55:02.384Z,84
2024-04-21T03:56:02.322Z,92
2024-04-21T03:57:02.346Z,101
2024-04-21T03:58:02.367Z,110
2024-04-21T03:59:02.327Z,117
2024-04-21T04:00:02.326Z,129
2024-04-21T04:01:02.435Z,138
2024-04-21T04:02:02.347Z,149
2024-04-21T04:03:02.373Z,158
2024-04-21T04:04:02.384Z,167
2024-04-21T04:05:02.375Z,176
2024-04-21T04:06:02.340Z,191
2024-04-21T04:07:02.358Z,202
2024-04-21T04:08:02.330Z,217
2024-04-21T04:09:02.327Z,234
2024-04-21T04:10:02.427Z,252
2024-04-21T04:11:02.402Z,252
2024-04-21T04:12:02.332Z,289
2024-04-21T04:13:02.381Z,302
2024-04-21T04:14:02.343Z,313
2024-04-21T04:15:02.337Z,326
2024-04-21T04:16:02.469Z,340
2024-04-21T04:17:02.403Z,353
2024-04-21T04:18:02.568Z,377
2024-04-21T04:19:02.511Z,403
2024-04-21T04:20:02.435Z,433
2024-04-21T04:21:02.324Z,457
2024-04-21T04:22:02.408Z,473
2024-04-21T04:23:02.352Z,488
2024-04-21T04:24:02.330Z,512
2024-04-21T04:25:02.408Z,525
2024-04-21T04:26:02.328Z,532
2024-04-21T04:27:02.325Z,545
2024-04-21T04:28:02.351Z,562
2024-04-21T04:29:02.327Z,584
2024-04-21T04:30:02.328Z,606
2024-04-21T04:31:02.432Z,626
2024-04-21T04:32:02.343Z,652
2024-04-21T04:33:02.442Z,656
2024-04-21T04:34:02.416Z,672
2024-04-21T04:35:02.349Z,681
2024-04-21T04:36:02.332Z,681
2024-04-21T04:37:02.406Z,691
2024-04-21T04:38:02.345Z,704
2024-04-21T04:39:02.344Z,696
2024-04-21T04:40:02.419Z,707
2024-04-21T04:41:02.335Z,713
2024-04-21T04:42:02.331Z,709
2024-04-21T04:43:02.435Z,726
2024-04-21T04:44:02.337Z,742
2024-04-21T04:45:02.357Z,764
2024-04-21T04:46:02.338Z,770
2024-04-21T04:47:02.380Z,785
2024-04-21T04:48:02.362Z,803
2024-04-21T04:49:02.444Z,816
2024-04-21T04:50:02.408Z,831
2024-04-21T04:51:02.357Z,853
2024-04-21T04:52:02.369Z,882
2024-04-21T04:53:02.343Z,919
2024-04-21T04:54:02.336Z,956
2024-04-21T04:55:02.425Z,1054
2024-04-21T04:56:02.333Z,1214
2024-04-21T04:57:02.321Z,1347
2024-04-21T04:58:02.457Z,1432
2024-04-21T04:59:05.355Z,1542
2024-04-21T05:00:02.355Z,1627
2024-04-21T05:01:02.449Z,1679
2024-04-21T05:02:02.384Z,1754
2024-04-21T05:03:02.373Z,1747
2024-04-21T05:04:02.504Z,1765
2024-04-21T05:05:02.424Z,1881
2024-04-21T05:06:02.332Z,2090
2024-04-21T05:07:02.401Z,2136
2024-04-21T05:08:02.340Z,2219
2024-04-21T05:09:02.327Z,2344
2024-04-21T05:10:02.473Z,2479
2024-04-21T05:11:02.413Z,2479
2024-04-21T05:12:02.347Z,2506
2024-04-21T05:13:02.408Z,2573
2024-04-21T05:14:02.332Z,2508
2024-04-21T05:15:02.333Z,2508
2024-04-21T05:16:02.385Z,2530
2024-04-21T05:17:02.354Z,2569
2024-04-21T05:18:02.482Z,2810
2024-04-21T05:19:02.405Z,2785
2024-04-21T05:20:02.420Z,2980
2024-04-21T05:21:02.346Z,3081
2024-04-21T05:22:02.349Z,3091
2024-04-21T05:23:02.331Z,3022
2024-04-21T05:24:02.336Z,3273
2024-04-21T05:25:02.410Z,3242
2024-04-21T05:26:02.341Z,3203
2024-04-21T05:27:02.341Z,3135
2024-04-21T05:28:02.350Z,3393
2024-04-21T05:29:02.370Z,3334
2024-04-21T05:30:02.348Z,3406
2024-04-21T05:31:02.404Z,3479
2024-04-21T05:32:02.397Z,3478
2024-04-21T05:33:02.361Z,3435
2024-04-21T05:34:02.398Z,3721
2024-04-21T05:35:02.345Z,3926
2024-04-21T05:36:02.335Z,4134
2024-04-21T05:37:02.412Z,4047
2024-04-21T05:38:02.336Z,3844
2024-04-21T05:39:02.336Z,3680
2024-04-21T05:40:02.403Z,4150
2024-04-21T05:41:02.332Z,4213
2024-04-21T05:42:02.328Z,4408
2024-04-21T05:43:02.363Z,4134
2024-04-21T05:44:02.344Z,4075
2024-04-21T05:45:02.337Z,3907
2024-04-21T05:46:02.370Z,3660
2024-04-21T05:47:02.382Z,4119
2024-04-21T05:48:02.511Z,4318
2024-04-21T05:49:02.389Z,4495
2024-04-21T05:50:02.351Z,4464
2024-04-21T05:51:02.328Z,4331
2024-04-21T05:52:02.394Z,4296
2024-04-21T05:53:02.336Z,3723
2024-04-21T05:54:02.332Z,3542
2024-04-21T05:55:02.360Z,3607
2024-04-21T05:56:02.332Z,3726
2024-04-21T05:57:02.349Z,3655
2024-04-21T05:58:02.391Z,3776
2024-04-21T05:59:02.342Z,3813
2024-04-21T06:00:02.338Z,3476
2024-04-21T06:01:02.445Z,3470
2024-04-21T06:02:02.351Z,3590
2024-04-21T06:03:02.406Z,3562
2024-04-21T06:04:02.427Z,3424
2024-04-21T06:05:02.494Z,3666
2024-04-21T06:06:02.323Z,3500
2024-04-21T06:07:02.386Z,3406
2024-04-21T06:08:02.328Z,3513
2024-04-21T06:09:02.350Z,3107
2024-04-21T06:10:02.420Z,2687
2024-04-21T06:11:02.337Z,2687
2024-04-21T06:12:02.348Z,2353
2024-04-21T06:13:04.205Z,2372
2024-04-21T06:14:02.346Z,2547
2024-04-21T06:15:02.323Z,2786
2024-04-21T06:16:02.359Z,2351
2024-04-21T06:17:02.332Z,2281
2024-04-21T06:18:02.555Z,2298
2024-04-21T06:19:02.443Z,2580
2024-04-21T06:20:02.388Z,3061
2024-04-21T06:21:02.326Z,2370
2024-04-21T06:22:02.364Z,2132
2024-04-21T06:23:02.339Z,2433
2024-04-21T06:24:02.339Z,2718
2024-04-21T06:25:02.362Z,2866
2024-04-21T06:26:02.363Z,2681
2024-04-21T06:27:02.345Z,2888
2024-04-21T06:28:02.379Z,3168
2024-04-21T06:29:02.329Z,2998
2024-04-21T06:30:02.329Z,2755
2024-04-21T06:31:02.393Z,2963
2024-04-21T06:32:02.359Z,2681
2024-04-21T06:33:02.418Z,2267
2024-04-21T06:34:02.417Z,2272
2024-04-21T06:35:02.387Z,2528
2024-04-21T06:36:02.327Z,2750
2024-04-21T06:37:02.386Z,2622
2024-04-21T06:38:02.328Z,2797
2024-04-21T06:39:02.330Z,3126
2024-04-21T06:40:02.442Z,3336
2024-04-21T06:41:02.342Z,3894
2024-04-21T06:42:02.341Z,4705
2024-04-21T06:43:02.346Z,4716
2024-04-21T06:44:02.344Z,4453
2024-04-21T06:45:02.332Z,5087
2024-04-21T06:46:02.379Z,5866
2024-04-21T06:47:02.345Z,5960
2024-04-21T06:48:02.461Z,6058
2024-04-21T06:49:02.362Z,6755
2024-04-21T06:50:02.361Z,8882
2024-04-21T06:51:02.338Z,7892
2024-04-21T06:52:02.338Z,6775
2024-04-21T06:53:02.340Z,6237
2024-04-21T06:54:02.340Z,6888
2024-04-21T06:55:02.498Z,5179
2024-04-21T06:56:02.390Z,4582
2024-04-21T06:57:02.345Z,4143
2024-04-21T06:58:02.370Z,4121
2024-04-21T06:59:02.347Z,3911
2024-04-21T07:00:02.355Z,4196
2024-04-21T07:01:02.470Z,3621
2024-04-21T07:02:02.509Z,3491
2024-04-21T07:03:03.319Z,3747
2024-04-21T07:04:02.407Z,3682
2024-04-21T07:05:02.347Z,3288
2024-04-21T07:06:02.335Z,3891
2024-04-21T07:07:02.417Z,5632
2024-04-21T07:08:02.344Z,5642
2024-04-21T07:09:02.334Z,5776
2024-04-21T07:10:02.405Z,7372
2024-04-21T07:11:02.746Z,7372
2024-04-21T07:12:02.332Z,4978
2024-04-21T07:13:02.371Z,6943
2024-04-21T07:14:10.679Z,11234
2024-04-21T07:15:02.330Z,8287
2024-04-21T07:16:02.378Z,5509
2024-04-21T07:17:02.323Z,4029
2024-04-21T07:18:02.505Z,4278
2024-04-21T07:19:02.431Z,4902
2024-04-21T07:20:02.353Z,5595
2024-04-21T07:21:02.350Z,6534
2024-04-21T07:22:02.367Z,6646
2024-04-21T07:23:02.341Z,7542
2024-04-21T07:24:02.338Z,5568
2024-04-21T07:25:12.622Z,4976
2024-04-21T07:26:02.414Z,5654
2024-04-21T07:27:02.350Z,5160
2024-04-21T07:28:02.414Z,4807
2024-04-21T07:29:02.344Z,5546
2024-04-21T07:30:02.329Z,5253
2024-04-21T07:31:02.358Z,4751
2024-04-21T07:32:02.382Z,6782
2024-04-21T07:33:02.399Z,6652
2024-04-21T07:34:02.411Z,6825
2024-04-21T07:35:02.352Z,9098
2024-04-21T07:36:02.324Z,13418
2024-04-21T07:37:02.397Z,11630
2024-04-21T07:38:06.050Z,11588
2024-04-21T07:39:02.339Z,7370
2024-04-21T07:40:02.345Z,9123
2024-04-21T07:41:02.326Z,8707
2024-04-21T07:42:02.339Z,13787
2024-04-21T07:43:02.408Z,13350
2024-04-21T07:44:02.337Z,13241
2024-04-21T07:45:02.329Z,11794
2024-04-21T07:46:03.386Z,9372
2024-04-21T07:47:02.392Z,7881
2024-04-21T07:48:02.580Z,8375
2024-04-21T07:49:02.375Z,12460
2024-04-21T07:50:02.352Z,5804
2024-04-21T07:51:02.330Z,5748
2024-04-21T07:52:02.372Z,10246
2024-04-21T07:53:02.354Z,6237
2024-04-21T07:54:02.358Z,5391
2024-04-21T07:55:02.412Z,5188
2024-04-21T07:56:02.343Z,10356
2024-04-21T07:57:03.729Z,5704
2024-04-21T07:58:02.393Z,5278
2024-04-21T07:59:02.339Z,5219
2024-04-21T08:00:02.334Z,14325
2024-04-21T08:01:02.402Z,5863
2024-04-21T08:02:02.506Z,5874
2024-04-21T08:03:02.374Z,14218
2024-04-21T08:04:02.396Z,7815
2024-04-21T08:05:02.395Z,7887
2024-04-21T08:06:02.342Z,13309
2024-04-21T08:07:02.376Z,14286
2024-04-21T08:08:02.344Z,14723
2024-04-21T08:09:11.756Z,15324
2024-04-21T08:10:02.363Z,14631
2024-04-21T08:11:04.919Z,14631
2024-04-21T08:12:02.320Z,14939
2024-04-21T08:13:02.358Z,14727
2024-04-21T08:14:02.355Z,15090
2024-04-21T08:15:02.340Z,8065
2024-04-21T08:16:02.410Z,6703
2024-04-21T08:17:02.340Z,14994
2024-04-21T08:18:02.450Z,15619
2024-04-21T08:19:02.415Z,15145
2024-04-21T08:20:02.398Z,14839
2024-04-21T08:21:02.384Z,16293
2024-04-21T08:22:02.395Z,13007
2024-04-21T08:23:02.338Z,14435
2024-04-21T08:24:02.325Z,15420
2024-04-21T08:25:02.371Z,5992
2024-04-21T08:26:02.354Z,5846
2024-04-21T08:27:02.328Z,6753
2024-04-21T08:28:02.417Z,5824
2024-04-21T08:29:02.342Z,5332
2024-04-21T08:30:02.330Z,5231
2024-04-21T08:31:02.382Z,5518
2024-04-21T08:32:02.366Z,13280
2024-04-21T08:33:02.338Z,11101
2024-04-21T08:34:02.396Z,10854
2024-04-21T08:35:02.353Z,9551
2024-04-21T08:36:02.325Z,6869
2024-04-21T08:37:02.373Z,6436
2024-04-21T08:38:02.341Z,6139
2024-04-21T08:39:02.339Z,5912
2024-04-21T08:40:02.379Z,6598
2024-04-21T08:41:02.346Z,6641
2024-04-21T08:42:02.334Z,6169
2024-04-21T08:43:02.352Z,5992
2024-04-21T08:44:02.338Z,5813
2024-04-21T08:45:02.334Z,5385
2024-04-21T08:46:02.345Z,5092
2024-04-21T08:47:02.322Z,4972
2024-04-21T08:48:02.430Z,4849
2024-04-21T08:49:02.368Z,4779
2024-04-21T08:50:02.460Z,4823
2024-04-21T08:51:02.345Z,5068
2024-04-21T08:52:02.361Z,5831
2024-04-21T08:53:02.331Z,9619
2024-04-21T08:54:02.339Z,8581
2024-04-21T08:55:02.371Z,10443
2024-04-21T08:56:02.333Z,10067
2024-04-21T08:57:02.328Z,8038
2024-04-21T08:58:02.354Z,7389
2024-04-21T08:59:02.330Z,7184
2024-04-21T09:00:02.327Z,6926
2024-04-21T09:01:02.403Z,6469
2024-04-21T09:02:02.419Z,6178
2024-04-21T09:03:02.346Z,6091
2024-04-21T09:04:02.491Z,6716
2024-04-21T09:05:02.414Z,10500
2024-04-21T09:06:02.336Z,8460
2024-04-21T09:07:02.386Z,7496
2024-04-21T09:08:02.353Z,8655
2024-04-21T09:09:02.348Z,8655
2024-04-21T09:10:02.451Z,12563
2024-04-21T09:11:02.549Z,12563
2024-04-21T09:12:02.359Z,13763
2024-04-21T09:13:02.382Z,7933
2024-04-21T09:14:02.343Z,7138
2024-04-21T09:15:02.346Z,6888
2024-04-21T09:16:02.360Z,6521
2024-04-21T09:17:02.337Z,6388
2024-04-21T09:18:02.541Z,6344
2024-04-21T09:19:02.362Z,6819
2024-04-21T09:20:02.347Z,10677
2024-04-21T09:21:02.351Z,7879
2024-04-21T09:22:02.384Z,7323
2024-04-21T09:23:02.336Z,6578
2024-04-21T09:24:02.330Z,6294
2024-04-21T09:25:02.378Z,16369
2024-04-21T09:26:02.326Z,14559
2024-04-21T09:27:02.338Z,14784
2024-04-21T09:28:02.362Z,16715
2024-04-21T09:29:02.331Z,15908
2024-04-21T09:30:02.418Z,8170
2024-04-21T09:31:02.376Z,7485
2024-04-21T09:32:02.380Z,7009
2024-04-21T09:33:02.590Z,7077
2024-04-21T09:34:02.368Z,11247
2024-04-21T09:35:02.356Z,8900
2024-04-21T09:36:02.334Z,17254
2024-04-21T09:37:02.346Z,17064
2024-04-21T09:38:02.323Z,17010
2024-04-21T09:39:02.368Z,14977
2024-04-21T09:40:02.492Z,8226
2024-04-21T09:41:02.337Z,12487
2024-04-21T09:42:02.353Z,8296
2024-04-21T09:43:02.360Z,13346
2024-04-21T09:44:02.327Z,9109
2024-04-21T09:45:02.347Z,16387
2024-04-21T09:46:02.433Z,16867
2024-04-21T09:47:02.317Z,16629
2024-04-21T09:48:02.591Z,10635
2024-04-21T09:49:02.392Z,8283
2024-04-21T09:50:02.351Z,7164
2024-04-21T09:51:02.329Z,6646
2024-04-21T09:52:02.374Z,6100
2024-04-21T09:53:02.350Z,5529
2024-04-21T09:54:02.346Z,5081
2024-04-21T09:55:02.425Z,4836
2024-04-21T09:56:02.351Z,4904
2024-04-21T09:57:02.325Z,5396
2024-04-21T09:58:02.567Z,7289
2024-04-21T09:59:02.337Z,5595
2024-04-21T10:00:02.665Z,5402
2024-04-21T10:01:02.427Z,5477
2024-04-21T10:02:02.416Z,6010
2024-04-21T10:03:02.510Z,7142
2024-04-21T10:04:02.439Z,9120
2024-04-21T10:05:02.354Z,9304
2024-04-21T10:06:02.332Z,13538
2024-04-21T10:07:02.376Z,9488
2024-04-21T10:08:02.332Z,9278
2024-04-21T10:09:02.340Z,9280
2024-04-21T10:10:02.448Z,17775
2024-04-21T10:11:02.346Z,17775
2024-04-21T10:12:02.328Z,17663
2024-04-21T10:13:02.413Z,17593
2024-04-21T10:14:02.377Z,17298
2024-04-21T10:15:02.332Z,17095
2024-04-21T10:16:02.378Z,8580
2024-04-21T10:17:02.341Z,8926
2024-04-21T10:18:02.484Z,12977
2024-04-21T10:19:02.352Z,14751
2024-04-21T10:20:02.389Z,17405
2024-04-21T10:21:02.341Z,15234
2024-04-21T10:22:02.457Z,15757
2024-04-21T10:23:02.344Z,10202
2024-04-21T10:24:02.341Z,9651
2024-04-21T10:25:02.413Z,8309
2024-04-21T10:26:02.331Z,7608
2024-04-21T10:27:02.368Z,7457
2024-04-21T10:28:02.437Z,10517
2024-04-21T10:29:02.342Z,8524
2024-04-21T10:30:02.355Z,7636
2024-04-21T10:31:02.363Z,7592
2024-04-21T10:32:02.361Z,7743
2024-04-21T10:33:02.352Z,7573
2024-04-21T10:34:02.377Z,7507
2024-04-21T10:35:02.351Z,7170
2024-04-21T10:36:02.333Z,6799
2024-04-21T10:37:02.391Z,6530
2024-04-21T10:38:02.330Z,6285
2024-04-21T10:39:02.333Z,6075
2024-04-21T10:40:02.439Z,5894
2024-04-21T10:41:02.341Z,5863
2024-04-21T10:42:02.347Z,5804
2024-04-21T10:43:02.335Z,5713
2024-04-21T10:44:02.329Z,5553
2024-04-21T10:45:02.358Z,5341
2024-04-21T10:46:02.365Z,5120
2024-04-21T10:47:02.331Z,5162
2024-04-21T10:48:02.401Z,5529
2024-04-21T10:49:02.390Z,7398
2024-04-21T10:50:02.353Z,6554
2024-04-21T10:51:02.344Z,6484
2024-04-21T10:52:02.354Z,6182
2024-04-21T10:53:02.345Z,6030
2024-04-21T10:54:02.333Z,5854
2024-04-21T10:55:02.366Z,5850
2024-04-21T10:56:02.353Z,5975
2024-04-21T10:57:02.336Z,6414
2024-04-21T10:58:02.478Z,10050
2024-04-21T10:59:02.339Z,10762
2024-04-21T11:00:02.338Z,17340
2024-04-21T11:01:02.488Z,17469
2024-04-21T11:02:02.437Z,17401
2024-04-21T11:03:02.364Z,17307
2024-04-21T11:04:02.428Z,17171
2024-04-21T11:05:02.349Z,16631
2024-04-21T11:06:02.374Z,8655
2024-04-21T11:07:02.370Z,8677
2024-04-21T11:08:02.324Z,8414
2024-04-21T11:09:02.336Z,8631
2024-04-21T11:10:02.429Z,8593
2024-04-21T11:11:02.432Z,8593
2024-04-21T11:12:02.331Z,8585
2024-04-21T11:13:02.387Z,8106
2024-04-21T11:14:02.335Z,7955
2024-04-21T11:15:02.362Z,8023
2024-04-21T11:16:02.499Z,7715
2024-04-21T11:17:02.332Z,7494
2024-04-21T11:18:02.466Z,8111
2024-04-21T11:19:02.485Z,17434
2024-04-21T11:20:02.345Z,17587
2024-04-21T11:21:02.331Z,16653
2024-04-21T11:22:02.356Z,17480
2024-04-21T11:23:02.327Z,17285
2024-04-21T11:24:02.355Z,7439
2024-04-21T11:25:02.376Z,6873
2024-04-21T11:26:02.322Z,6690
2024-04-21T11:27:02.329Z,6506
2024-04-21T11:28:02.396Z,6559
2024-04-21T11:29:02.340Z,6650
2024-04-21T11:30:02.357Z,6441
2024-04-21T11:31:02.329Z,6265
2024-04-21T11:32:02.362Z,6910
2024-04-21T11:33:02.393Z,9094
2024-04-21T11:34:02.469Z,9461
2024-04-21T11:35:02.353Z,16572
2024-04-21T11:36:02.324Z,16832
2024-04-21T11:37:02.350Z,10336
2024-04-21T11:38:02.331Z,9645
2024-04-21T11:39:02.416Z,8205
2024-04-21T11:40:02.568Z,7890
2024-04-21T11:41:02.327Z,8331
2024-04-21T11:42:02.330Z,7824
2024-04-21T11:43:02.426Z,7431
2024-04-21T11:44:02.340Z,6900
2024-04-21T11:45:02.346Z,16362
2024-04-21T11:46:02.525Z,16400
2024-04-21T11:47:02.319Z,7982
2024-04-21T11:48:02.460Z,8163
2024-04-21T11:49:02.386Z,7501
2024-04-21T11:50:02.351Z,7090
2024-04-21T11:51:02.362Z,7603
2024-04-21T11:52:02.400Z,7428
2024-04-21T11:53:02.426Z,7304
2024-04-21T11:54:02.342Z,7044
2024-04-21T11:55:02.392Z,6875
2024-04-21T11:56:02.340Z,6342
2024-04-21T11:57:02.339Z,6257
2024-04-21T11:58:02.377Z,6604
2024-04-21T11:59:02.327Z,8244
2024-04-21T12:00:05.462Z,11545
2024-04-21T12:01:02.413Z,7981
2024-04-21T12:02:02.386Z,7560
2024-04-21T12:03:02.391Z,7507
2024-04-21T12:04:02.394Z,8548
2024-04-21T12:05:02.672Z,8064
2024-04-21T12:06:02.327Z,16607
2024-04-21T12:07:02.376Z,8557
2024-04-21T12:08:02.343Z,7750
2024-04-21T12:09:02.337Z,6961
2024-04-21T12:10:02.438Z,6950
2024-04-21T12:11:02.403Z,6950
2024-04-21T12:12:02.344Z,6504
2024-04-21T12:13:02.365Z,6222
2024-04-21T12:14:02.329Z,6195
2024-04-21T12:15:02.355Z,6447
2024-04-21T12:16:02.416Z,7077
2024-04-21T12:17:02.499Z,10154
2024-04-21T12:18:02.353Z,16220
2024-04-21T12:19:02.387Z,16118
2024-04-21T12:20:02.349Z,8023
2024-04-21T12:21:02.334Z,7112
2024-04-21T12:22:02.383Z,7147
2024-04-21T12:23:02.340Z,7229
2024-04-21T12:24:02.323Z,8504
2024-04-21T12:25:02.386Z,7175
2024-04-21T12:26:02.335Z,9291
2024-04-21T12:27:02.324Z,6145
2024-04-21T12:28:02.349Z,6711
2024-04-21T12:29:02.328Z,10856
2024-04-21T12:30:02.325Z,7582
2024-04-21T12:31:02.460Z,7258
2024-04-21T12:32:02.343Z,7909
2024-04-21T12:33:02.563Z,12358
2024-04-21T12:34:02.374Z,7853
2024-04-21T12:35:02.347Z,8049
2024-04-21T12:36:02.361Z,7131
2024-04-21T12:37:02.346Z,6574
2024-04-21T12:38:02.324Z,6252
2024-04-21T12:39:02.335Z,6084
2024-04-21T12:40:02.412Z,5951
2024-04-21T12:41:02.357Z,5946
2024-04-21T12:42:02.346Z,5900
2024-04-21T12:43:02.451Z,5787
2024-04-21T12:44:02.331Z,5389
2024-04-21T12:45:02.330Z,4950
2024-04-21T12:46:02.460Z,4856
2024-04-21T12:47:02.545Z,5199
2024-04-21T12:48:02.345Z,5724
2024-04-21T12:49:02.401Z,6084
2024-04-21T12:50:02.479Z,5837
2024-04-21T12:51:02.335Z,5312
2024-04-21T12:52:02.354Z,4823
2024-04-21T12:53:02.320Z,4609
2024-04-21T12:54:02.318Z,4563
2024-04-21T12:55:02.389Z,4578
2024-04-21T12:56:02.336Z,4510
2024-04-21T12:57:02.335Z,4537
2024-04-21T12:58:02.377Z,4408
2024-04-21T12:59:02.329Z,4309
2024-04-21T13:00:02.341Z,4049
2024-04-21T13:01:02.383Z,3896
2024-04-21T13:02:02.404Z,3817
2024-04-21T13:03:02.358Z,3743
2024-04-21T13:04:02.446Z,3649
2024-04-21T13:05:02.640Z,3579
2024-04-21T13:06:02.316Z,3503
2024-04-21T13:07:02.347Z,3494
2024-04-21T13:08:02.425Z,3588
2024-04-21T13:09:02.334Z,3701
2024-04-21T13:10:02.376Z,3804
2024-04-21T13:11:02.440Z,3804
2024-04-21T13:12:02.335Z,3977
2024-04-21T13:13:02.352Z,4016
2024-04-21T13:14:02.332Z,3929
2024-04-21T13:15:02.331Z,3848
2024-04-21T13:16:02.360Z,3867
2024-04-21T13:17:02.371Z,3996
2024-04-21T13:18:02.433Z,4160
2024-04-21T13:19:02.354Z,4390
2024-04-21T13:20:02.352Z,4685
2024-04-21T13:21:02.321Z,7973
2024-04-21T13:22:02.367Z,13532
2024-04-21T13:23:02.344Z,12697
2024-04-21T13:24:02.335Z,11545
2024-04-21T13:25:02.373Z,13663
2024-04-21T13:26:02.335Z,9051
2024-04-21T13:27:02.321Z,10296
2024-04-21T13:28:02.380Z,13637
2024-04-21T13:29:02.341Z,8471
2024-04-21T13:30:02.327Z,12063
2024-04-21T13:31:02.341Z,7597
2024-04-21T13:32:02.417Z,5892
2024-04-21T13:33:02.459Z,5203
2024-04-21T13:34:02.365Z,5011
2024-04-21T13:35:02.380Z,8423
2024-04-21T13:36:02.331Z,5210
2024-04-21T13:37:02.358Z,5070
2024-04-21T13:38:02.340Z,4917
2024-04-21T13:39:02.443Z,4965
2024-04-21T13:40:02.432Z,5116